Nova Brasilandia, Brazil
Current Conditions -  °F | °C
As of 11:00 AM on Monday 22 Dec 2014 (Local Time) from SBCY Reporting Station
Light Rain Light Rain  
Wind Chill: 77°   Ceiling: 2000
Heat Index: 78°   Visibility: 1.8mi
Dew Point: 73°   Wind: 9mph
Humidity: 89%   Direction: 320°NW
Pressure: 29.94"   Gusts: NA
Location:  14.96°S, 54.97°W
Report Text: SBCY 221400Z 32008KT 3000 -RA BR BKN020 FEW025TCU BKN100 25/23 Q1014
Loading
Personal Weather Stations






























Interactive Weather Map New forecast layout! Learn more

10-Day Weather Forecast

Advertisements
Track Severe Weather on mobile